Time,TemperatureF,DewpointF,PressureIn,WindDirection,WindDirectionDegrees,WindSpeedMPH,WindSpeedGustMPH,Humidity,HourlyPrecipIn,Conditions,Clouds,dailyrainin,SoftwareType,DateUTC
2013-02-02 00:01:00,44.0,36.0,30.26,West,269,0.0,0.0,74,0.00,,,0.00,,2013-02-02 08:01:00,
2013-02-02 00:11:00,44.0,36.0,30.26,West,269,0.0,0.0,74,0.00,,,0.00,,2013-02-02 08:11:00,
2013-02-02 00:21:00,43.0,36.0,30.29,West,269,0.0,0.0,75,0.00,,,0.00,,2013-02-02 08:21:00,
2013-02-02 00:31:00,43.0,36.0,30.29,West,269,0.0,0.0,76,0.00,,,0.00,,2013-02-02 08:31:00,
2013-02-02 00:41:00,43.0,36.0,30.29,West,269,0.0,0.0,76,0.00,,,0.00,,2013-02-02 08:41:00,
2013-02-02 00:52:00,42.0,35.0,30.29,West,269,0.0,0.0,77,0.00,,,0.00,,2013-02-02 08:52:00,
2013-02-02 01:01:00,42.0,35.0,30.29,West,269,0.0,0.0,77,0.00,,,0.00,,2013-02-02 09:01:00,
2013-02-02 01:11:00,42.0,35.0,30.29,West,269,0.0,0.0,77,0.00,,,0.00,,2013-02-02 09:11:00,
2013-02-02 01:22:00,42.0,36.0,30.29,West,269,0.0,0.0,78,0.00,,,0.00,,2013-02-02 09:22:00,
2013-02-02 01:31:00,42.0,36.0,30.29,West,269,0.0,0.0,78,0.00,,,0.00,,2013-02-02 09:31:00,
2013-02-02 01:41:00,42.0,36.0,30.29,West,269,0.0,0.0,78,0.00,,,0.00,,2013-02-02 09:41:00,
2013-02-02 01:52:00,42.0,36.0,30.29,West,269,0.0,0.0,78,0.00,,,0.00,,2013-02-02 09:52:00,
2013-02-02 02:01:00,42.0,36.0,30.29,West,269,0.0,0.0,80,0.00,,,0.00,,2013-02-02 10:01:00,
2013-02-02 02:11:00,42.0,36.0,30.29,West,269,0.0,0.0,80,0.00,,,0.00,,2013-02-02 10:11:00,
2013-02-02 02:21:00,42.0,36.0,30.29,West,269,0.0,0.0,80,0.00,,,0.00,,2013-02-02 10:21:00,
2013-02-02 02:31:00,42.0,37.0,30.29,West,269,0.0,0.0,81,0.00,,,0.00,,2013-02-02 10:31:00,
2013-02-02 02:41:00,42.0,37.0,30.29,West,269,0.0,0.0,81,0.00,,,0.00,,2013-02-02 10:41:00,
2013-02-02 02:51:00,42.0,37.0,30.29,West,269,0.0,0.0,81,0.00,,,0.00,,2013-02-02 10:51:00,
2013-02-02 03:01:00,42.0,37.0,30.29,West,269,0.0,0.0,82,0.00,,,0.00,,2013-02-02 11:01:00,
2013-02-02 03:11:00,42.0,37.0,30.29,West,269,0.0,0.0,82,0.00,,,0.00,,2013-02-02 11:11:00,
2013-02-02 03:21:00,42.0,37.0,30.29,West,269,0.0,0.0,82,0.00,,,0.00,,2013-02-02 11:21:00,
2013-02-02 03:31:00,42.0,37.0,30.29,West,269,0.0,0.0,83,0.00,,,0.00,,2013-02-02 11:31:00,
2013-02-02 03:41:00,42.0,37.0,30.29,West,269,0.0,0.0,83,0.00,,,0.00,,2013-02-02 11:41:00,
2013-02-02 03:52:00,42.0,37.0,30.29,West,269,0.0,0.0,83,0.00,,,0.00,,2013-02-02 11:52:00,
2013-02-02 04:01:00,42.0,37.0,30.29,West,269,0.0,0.0,83,0.00,,,0.00,,2013-02-02 12:01:00,
2013-02-02 04:11:00,42.0,37.0,30.29,West,269,0.0,0.0,83,0.00,,,0.00,,2013-02-02 12:11:00,
2013-02-02 04:22:00,42.0,37.0,30.29,West,269,0.0,0.0,83,0.00,,,0.00,,2013-02-02 12:22:00,
2013-02-02 04:32:00,42.0,38.0,30.29,West,269,0.0,0.0,84,0.00,,,0.00,,2013-02-02 12:32:00,
2013-02-02 04:42:00,42.0,38.0,30.29,West,269,0.0,0.0,84,0.00,,,0.00,,2013-02-02 12:42:00,
2013-02-02 04:52:00,42.0,38.0,30.29,West,269,0.0,0.0,84,0.00,,,0.00,,2013-02-02 12:52:00,
2013-02-02 05:02:00,42.0,38.0,30.29,West,269,0.0,0.0,84,0.00,,,0.00,,2013-02-02 13:02:00,
2013-02-02 05:11:00,42.0,38.0,30.29,West,269,0.0,0.0,84,0.00,,,0.00,,2013-02-02 13:11:00,
2013-02-02 05:21:00,42.0,38.0,30.29,West,269,0.0,0.0,85,0.00,,,0.00,,2013-02-02 13:21:00,
2013-02-02 05:32:00,42.0,38.0,30.29,West,269,0.0,0.0,85,0.00,,,0.00,,2013-02-02 13:32:00,
2013-02-02 05:42:00,42.0,38.0,30.29,West,269,0.0,0.0,85,0.00,,,0.00,,2013-02-02 13:42:00,
2013-02-02 05:51:00,42.0,38.0,30.29,West,269,0.0,0.0,85,0.00,,,0.00,,2013-02-02 13:51:00,
2013-02-02 06:02:00,42.0,38.0,30.29,West,269,0.0,0.0,85,0.00,,,0.00,,2013-02-02 14:02:00,
2013-02-02 06:11:00,42.0,38.0,30.29,West,269,0.0,0.0,85,0.00,,,0.00,,2013-02-02 14:11:00,
2013-02-02 06:22:00,42.0,38.0,30.29,West,269,0.0,0.0,86,0.00,,,0.00,,2013-02-02 14:22:00,
2013-02-02 06:31:00,42.0,38.0,30.29,West,269,0.0,0.0,86,0.00,,,0.00,,2013-02-02 14:31:00,
2013-02-02 06:41:00,42.0,38.0,30.29,West,269,0.0,0.0,86,0.00,,,0.00,,2013-02-02 14:41:00,
2013-02-02 06:52:00,42.0,38.0,30.29,West,269,0.0,0.0,86,0.00,,,0.00,,2013-02-02 14:52:00,
2013-02-02 07:02:00,42.0,38.0,30.29,West,269,0.0,0.0,86,0.00,,,0.00,,2013-02-02 15:02:00,
2013-02-02 07:11:00,42.0,38.0,30.29,West,269,0.0,0.0,86,0.00,,,0.00,,2013-02-02 15:11:00,
2013-02-02 07:21:00,42.0,38.0,30.29,West,269,0.0,0.0,87,0.00,,,0.00,,2013-02-02 15:21:00,
2013-02-02 07:32:00,42.0,38.0,30.32,West,269,0.0,0.0,87,0.00,,,0.00,,2013-02-02 15:32:00,
2013-02-02 07:41:00,42.0,38.0,30.32,West,269,0.0,0.0,87,0.00,,,0.00,,2013-02-02 15:41:00,
2013-02-02 07:52:00,43.0,39.0,30.32,West,269,0.0,0.0,87,0.00,,,0.00,,2013-02-02 15:52:00,
2013-02-02 08:01:00,43.0,39.0,30.32,West,269,0.0,0.0,87,0.00,,,0.00,,2013-02-02 16:01:00,
2013-02-02 08:11:00,43.0,39.0,30.32,West,269,0.0,0.0,87,0.00,,,0.00,,2013-02-02 16:11:00,
2013-02-02 08:21:00,44.0,40.0,30.32,West,269,0.0,0.0,87,0.00,,,0.00,,2013-02-02 16:21:00,
2013-02-02 08:31:00,44.0,41.0,30.32,West,269,0.0,0.0,88,0.00,,,0.00,,2013-02-02 16:31:00,
2013-02-02 08:42:00,44.0,41.0,30.32,West,269,0.0,0.0,88,0.00,,,0.00,,2013-02-02 16:42:00,
2013-02-02 08:52:00,44.0,41.0,30.32,West,269,0.0,0.0,88,0.00,,,0.00,,2013-02-02 16:52:00,
2013-02-02 09:01:00,46.0,43.0,30.35,West,269,0.0,0.0,88,0.00,,,0.00,,2013-02-02 17:01:00,
2013-02-02 09:11:00,46.0,43.0,30.35,West,269,0.0,0.0,88,0.00,,,0.00,,2013-02-02 17:11:00,
2013-02-02 09:21:00,47.0,44.0,30.35,West,269,0.0,0.0,88,0.00,,,0.00,,2013-02-02 17:21:00,
2013-02-02 09:32:00,48.0,45.0,30.35,West,269,0.0,0.0,89,0.00,,,0.00,,2013-02-02 17:32:00,
2013-02-02 09:41:00,48.0,45.0,30.35,West,269,0.0,0.0,89,0.00,,,0.00,,2013-02-02 17:41:00,
2013-02-02 09:52:00,49.0,46.0,30.35,NNE,33,0.0,0.0,89,0.00,,,0.00,,2013-02-02 17:52:00,
2013-02-02 10:01:00,50.0,47.0,30.35,NNE,33,0.0,0.0,89,0.00,,,0.00,,2013-02-02 18:01:00,
2013-02-02 10:11:00,50.0,47.0,30.35,NNE,33,0.0,0.0,89,0.00,,,0.00,,2013-02-02 18:11:00,
2013-02-02 10:21:00,53.0,47.0,30.35,North,4,0.0,0.0,80,0.00,,,0.00,,2013-02-02 18:21:00,
2013-02-02 10:31:00,55.0,38.0,30.35,NNE,25,2.0,4.0,53,0.00,,,0.00,,2013-02-02 18:31:00,
2013-02-02 10:41:00,55.0,38.0,30.35,NNE,25,2.0,4.0,53,0.00,,,0.00,,2013-02-02 18:41:00,
2013-02-02 10:52:00,58.0,36.0,30.34,NE,56,0.0,4.0,43,0.00,,,0.00,,2013-02-02 18:52:00,
2013-02-02 11:01:00,60.0,34.0,30.34,NNW,335,0.0,5.0,38,0.00,,,0.00,,2013-02-02 19:01:00,
2013-02-02 11:21:00,60.0,33.0,30.34,SW,221,0.0,5.0,36,0.00,,,0.00,,2013-02-02 19:21:00,
2013-02-02 11:31:00,60.0,32.0,30.34,NNW,327,4.0,6.0,35,0.00,,,0.00,,2013-02-02 19:31:00,
2013-02-02 11:41:00,60.0,32.0,30.34,NNW,327,4.0,6.0,35,0.00,,,0.00,,2013-02-02 19:41:00,
2013-02-02 11:51:00,59.0,32.0,30.34,North,353,2.0,6.0,36,0.00,,,0.00,,2013-02-02 19:51:00,
2013-02-02 12:01:00,62.0,34.0,30.34,NE,47,2.0,8.0,35,0.00,,,0.00,,2013-02-02 20:01:00,
2013-02-02 12:21:00,62.0,33.0,30.31,SW,228,3.0,6.0,34,0.00,,,0.00,,2013-02-02 20:21:00,
2013-02-02 12:32:00,62.0,33.0,30.31,NW,315,0.0,7.0,34,0.00,,,0.00,,2013-02-02 20:32:00,
2013-02-02 12:41:00,62.0,33.0,30.31,NW,315,0.0,7.0,34,0.00,,,0.00,,2013-02-02 20:41:00,
2013-02-02 12:52:00,63.0,34.0,30.31,North,357,0.0,6.0,34,0.00,,,0.00,,2013-02-02 20:52:00,
2013-02-02 13:01:00,64.0,34.0,30.31,WNW,296,4.0,6.0,33,0.00,,,0.00,,2013-02-02 21:01:00,
2013-02-02 13:21:00,64.0,34.0,30.28,South,174,2.0,6.0,32,0.00,,,0.00,,2013-02-02 21:21:00,
2013-02-02 13:32:00,65.0,34.0,30.28,North,353,0.0,6.0,32,0.00,,,0.00,,2013-02-02 21:32:00,
2013-02-02 13:42:00,65.0,34.0,30.28,North,353,0.0,6.0,32,0.00,,,0.00,,2013-02-02 21:42:00,
2013-02-02 13:52:00,65.0,34.0,30.28,North,357,0.0,6.0,31,0.00,,,0.00,,2013-02-02 21:52:00,
2013-02-02 14:01:00,64.0,33.0,30.28,WNW,284,2.0,6.0,31,0.00,,,0.00,,2013-02-02 22:01:00,
2013-02-02 14:21:00,64.0,34.0,30.28,NNW,342,0.0,6.0,33,0.00,,,0.00,,2013-02-02 22:21:00,
2013-02-02 14:32:00,64.0,34.0,30.28,West,273,0.0,4.0,33,0.00,,,0.00,,2013-02-02 22:32:00,
2013-02-02 14:42:00,64.0,34.0,30.28,West,273,0.0,4.0,33,0.00,,,0.00,,2013-02-02 22:42:00,
2013-02-02 14:52:00,64.0,33.0,30.28,NNW,344,3.0,5.0,31,0.00,,,0.00,,2013-02-02 22:52:00,
2013-02-02 15:01:00,65.0,34.0,30.28,West,268,0.0,5.0,31,0.00,,,0.00,,2013-02-02 23:01:00,
2013-02-02 15:21:00,64.0,33.0,30.28,West,271,3.0,5.0,31,0.00,,,0.00,,2013-02-02 23:21:00,
2013-02-02 15:32:00,64.0,33.0,30.28,SW,228,0.0,6.0,31,0.00,,,0.00,,2013-02-02 23:32:00,
2013-02-02 15:41:00,64.0,33.0,30.28,SW,228,0.0,6.0,31,0.00,,,0.00,,2013-02-02 23:41:00,
2013-02-02 15:52:00,64.0,33.0,30.28,NNW,334,0.0,5.0,31,0.00,,,0.00,,2013-02-02 23:52:00,
2013-02-02 16:01:00,63.0,32.0,30.28,North,0,0.0,4.0,31,0.00,,,0.00,,2013-02-03 00:01:00,
2013-02-02 16:21:00,63.0,33.0,30.25,WSW,241,0.0,4.0,32,0.00,,,0.00,,2013-02-03 00:21:00,
2013-02-02 16:31:00,63.0,33.0,30.25,WSW,241,0.0,4.0,32,0.00,,,0.00,,2013-02-03 00:31:00,
2013-02-02 16:41:00,63.0,33.0,30.25,WSW,241,0.0,4.0,32,0.00,,,0.00,,2013-02-03 00:41:00,
2013-02-02 16:52:00,62.0,33.0,30.28,SW,220,0.0,4.0,34,0.00,,,0.00,,2013-02-03 00:52:00,
2013-02-02 17:01:00,61.0,33.0,30.25,SW,220,0.0,3.0,35,0.00,,,0.00,,2013-02-03 01:01:00,
2013-02-02 17:11:00,60.0,33.0,30.25,SW,220,0.0,0.0,36,0.00,,,0.00,,2013-02-03 01:11:00,
2013-02-02 17:21:00,60.0,33.0,30.25,SW,220,0.0,0.0,36,0.00,,,0.00,,2013-02-03 01:21:00,
2013-02-02 17:32:00,58.0,34.0,30.25,SW,220,0.0,2.0,40,0.00,,,0.00,,2013-02-03 01:32:00,
2013-02-02 17:41:00,58.0,34.0,30.25,SW,220,0.0,2.0,40,0.00,,,0.00,,2013-02-03 01:41:00,
2013-02-02 17:51:00,58.0,34.0,30.25,SW,220,0.0,2.0,41,0.00,,,0.00,,2013-02-03 01:51:00,
2013-02-02 18:01:00,56.0,36.0,30.25,SW,220,0.0,0.0,46,0.00,,,0.00,,2013-02-03 02:01:00,
2013-02-02 18:21:00,55.0,36.0,30.26,SW,220,0.0,2.0,48,0.00,,,0.00,,2013-02-03 02:21:00,
2013-02-02 18:31:00,54.0,36.0,30.29,SW,220,0.0,0.0,50,0.00,,,0.00,,2013-02-03 02:31:00,
2013-02-02 18:41:00,54.0,36.0,30.29,SW,220,0.0,0.0,50,0.00,,,0.00,,2013-02-03 02:41:00,
2013-02-02 18:52:00,53.0,36.0,30.29,SW,220,0.0,0.0,52,0.00,,,0.00,,2013-02-03 02:52:00,
2013-02-02 19:01:00,52.0,36.0,30.29,SW,220,0.0,0.0,54,0.00,,,0.00,,2013-02-03 03:01:00,
2013-02-02 19:11:00,51.0,36.0,30.29,SW,220,0.0,0.0,56,0.00,,,0.00,,2013-02-03 03:11:00,
2013-02-02 19:21:00,51.0,36.0,30.29,SW,220,0.0,0.0,56,0.00,,,0.00,,2013-02-03 03:21:00,
2013-02-02 19:31:00,50.0,35.0,30.29,SW,220,0.0,0.0,57,0.00,,,0.00,,2013-02-03 03:31:00,
2013-02-02 19:41:00,50.0,35.0,30.29,SW,220,0.0,0.0,57,0.00,,,0.00,,2013-02-03 03:41:00,
2013-02-02 19:52:00,49.0,35.0,30.29,SW,220,0.0,3.0,59,0.00,,,0.00,,2013-02-03 03:52:00,
2013-02-02 20:01:00,49.0,36.0,30.29,SW,220,0.0,0.0,60,0.00,,,0.00,,2013-02-03 04:01:00,
2013-02-02 20:21:00,48.0,36.0,30.29,SW,220,0.0,0.0,63,0.00,,,0.00,,2013-02-03 04:21:00,
2013-02-02 20:31:00,47.0,36.0,30.29,SW,220,0.0,0.0,65,0.00,,,0.00,,2013-02-03 04:31:00,
2013-02-02 20:42:00,47.0,36.0,30.29,SW,220,0.0,0.0,65,0.00,,,0.00,,2013-02-03 04:42:00,
2013-02-02 20:52:00,47.0,36.0,30.29,SW,220,0.0,0.0,66,0.00,,,0.00,,2013-02-03 04:52:00,
2013-02-02 21:03:00,47.0,37.0,30.29,SW,220,0.0,0.0,67,0.00,,,0.00,,2013-02-03 05:03:00,
2013-02-02 21:11:00,47.0,37.0,30.29,SW,220,0.0,0.0,67,0.00,,,0.00,,2013-02-03 05:11:00,
2013-02-02 21:22:00,46.0,36.0,30.29,SW,220,0.0,0.0,68,0.00,,,0.00,,2013-02-03 05:22:00,
2013-02-02 21:31:00,46.0,36.0,30.29,SW,220,0.0,0.0,69,0.00,,,0.00,,2013-02-03 05:31:00,
2013-02-02 21:41:00,46.0,36.0,30.29,SW,220,0.0,0.0,69,0.00,,,0.00,,2013-02-03 05:41:00,
2013-02-02 21:52:00,45.0,36.0,30.29,SW,220,0.0,0.0,70,0.00,,,0.00,,2013-02-03 05:52:00,
2013-02-02 22:02:00,45.0,36.0,30.29,SW,220,0.0,0.0,71,0.00,,,0.00,,2013-02-03 06:02:00,
2013-02-02 22:11:00,45.0,36.0,30.29,SW,220,0.0,0.0,71,0.00,,,0.00,,2013-02-03 06:11:00,
2013-02-02 22:21:00,45.0,37.0,30.29,SW,220,0.0,0.0,72,0.00,,,0.00,,2013-02-03 06:21:00,
2013-02-02 22:31:00,44.0,36.0,30.29,SW,220,0.0,0.0,73,0.00,,,0.00,,2013-02-03 06:31:00,
2013-02-02 22:41:00,44.0,36.0,30.29,SW,220,0.0,0.0,73,0.00,,,0.00,,2013-02-03 06:41:00,
2013-02-02 22:52:00,44.0,36.0,30.29,SW,220,0.0,0.0,74,0.00,,,0.00,,2013-02-03 06:52:00,
2013-02-02 23:01:00,44.0,37.0,30.29,SW,220,0.0,0.0,75,0.00,,,0.00,,2013-02-03 07:01:00,
2013-02-02 23:11:00,44.0,37.0,30.29,SW,220,0.0,0.0,75,0.00,,,0.00,,2013-02-03 07:11:00,
2013-02-02 23:21:00,44.0,37.0,30.29,SW,220,0.0,0.0,76,0.00,,,0.00,,2013-02-03 07:21:00,
2013-02-02 23:31:00,43.0,36.0,30.29,SW,220,0.0,0.0,76,0.00,,,0.00,,2013-02-03 07:31:00,
2013-02-02 23:41:00,43.0,36.0,30.29,SW,220,0.0,0.0,76,0.00,,,0.00,,2013-02-03 07:41:00,
2013-02-02 23:52:00,43.0,36.0,30.29,SW,220,0.0,0.0,77,0.00,,,0.00,,2013-02-03 07:52:00,